createdAt,value
2019-02-15T00:01:04.024Z,103404.39
2019-02-15T00:03:33.371Z,103399.35
2019-02-15T00:06:02.399Z,103393.92
2019-02-15T00:08:31.738Z,103396.83
2019-02-15T00:11:00.795Z,103397.62
2019-02-15T00:13:30.045Z,103397.16
2019-02-15T00:15:59.098Z,103390.72
2019-02-15T00:18:35.039Z,103391.04
2019-02-15T00:21:24.922Z,103395.54
2019-02-15T00:23:53.936Z,103397.59
2019-02-15T00:26:23.008Z,103404.13
2019-02-15T00:28:52.022Z,103408.23
2019-02-15T00:31:22.386Z,103402.11
2019-02-15T00:33:51.399Z,103399.05
2019-02-15T00:36:20.775Z,103393.41
2019-02-15T00:38:49.823Z,103398.22
2019-02-15T00:41:18.834Z,103390.98
2019-02-15T00:43:47.872Z,103390.84
2019-02-15T00:46:41.813Z,103383.97
2019-02-15T00:49:15.934Z,103389.01
2019-02-15T00:52:01.324Z,103386.73
2019-02-15T00:54:47.038Z,103402.16
2019-02-15T00:57:23.924Z,103402.95
2019-02-15T01:00:02.506Z,103404.05
2019-02-15T01:02:49.221Z,103393.05
2019-02-15T01:05:36.193Z,103397.22
2019-02-15T01:08:30.526Z,103392.58
2019-02-15T01:11:07.086Z,103389.59
2019-02-15T01:13:36.146Z,103382.05
2019-02-15T01:16:05.188Z,103388.34
2019-02-15T01:18:34.212Z,103398.33
2019-02-15T01:21:03.228Z,103394.80
2019-02-15T01:23:32.279Z,103392.60
2019-02-15T01:26:32.589Z,103397.16
2019-02-15T01:29:32.596Z,103396.15
2019-02-15T01:32:28.950Z,103390.49
2019-02-15T01:35:15.762Z,103392.78
2019-02-15T01:38:03.813Z,103394.04
2019-02-15T01:40:50.814Z,103390.98
2019-02-15T01:43:44.665Z,103389.56
2019-02-15T01:46:20.437Z,103394.05
2019-02-15T01:48:49.498Z,103383.05
2019-02-15T01:51:18.857Z,103388.39
2019-02-15T01:53:47.886Z,103385.26
2019-02-15T01:56:16.938Z,103384.95
2019-02-15T01:58:45.958Z,103389.35
2019-02-15T02:01:20.102Z,103384.64
2019-02-15T02:03:49.169Z,103384.95
2019-02-15T02:06:18.216Z,103386.92
2019-02-15T02:08:47.277Z,103382.13
2019-02-15T02:11:16.354Z,103378.16
2019-02-15T02:13:49.720Z,103380.52
2019-02-15T02:16:16.099Z,103385.39
2019-02-15T02:18:45.154Z,103391.83
2019-02-15T02:21:14.179Z,103386.17
2019-02-15T02:23:43.228Z,103382.16
2019-02-15T02:26:12.446Z,103376.12
2019-02-15T02:28:41.422Z,103380.52
2019-02-15T02:31:10.481Z,103380.98
2019-02-15T02:33:39.494Z,103384.44
2019-02-15T02:36:08.573Z,103384.36
2019-02-15T02:38:37.591Z,103379.41
2019-02-15T02:41:06.924Z,103373.52
2019-02-15T02:43:35.974Z,103367.95
2019-02-15T02:46:05.001Z,103375.95
2019-02-15T02:48:34.132Z,103370.45
2019-02-15T02:51:03.164Z,103357.89
2019-02-15T02:53:32.592Z,103350.52
2019-02-15T02:56:01.907Z,103354.44
2019-02-15T02:58:30.959Z,103345.02
2019-02-15T03:00:59.915Z,103341.33
2019-02-15T03:03:28.994Z,103337.56
2019-02-15T03:05:58.063Z,103343.92
2019-02-15T03:08:27.140Z,103339.05
2019-02-15T03:10:56.178Z,103339.05
2019-02-15T03:13:25.193Z,103337.72
2019-02-15T03:15:54.170Z,103338.58
2019-02-15T03:18:23.225Z,103341.09
2019-02-15T03:20:52.282Z,103330.95
2019-02-15T03:23:21.234Z,103336.84
2019-02-15T03:25:50.307Z,103342.74
2019-02-15T03:28:19.706Z,103335.75
2019-02-15T03:30:48.751Z,103333.31
2019-02-15T03:33:17.782Z,103334.17
2019-02-15T03:35:59.103Z,103328.83
2019-02-15T03:38:42.178Z,103332.69
2019-02-15T03:41:26.484Z,103327.73
2019-02-15T03:43:56.241Z,103331.19
2019-02-15T03:46:25.568Z,103329.65
2019-02-15T03:48:54.598Z,103337.66
2019-02-15T03:51:23.651Z,103338.05
2019-02-15T03:53:52.703Z,103330.91
2019-02-15T03:56:21.760Z,103328.67
2019-02-15T03:58:50.826Z,103334.95
2019-02-15T04:01:20.289Z,103329.70
2019-02-15T04:03:49.329Z,103328.76
2019-02-15T04:06:18.401Z,103322.39
2019-02-15T04:08:47.707Z,103322.71
2019-02-15T04:11:16.731Z,103330.95
2019-02-15T04:13:45.653Z,103326.64
2019-02-15T04:16:14.675Z,103331.74
2019-02-15T04:18:43.635Z,103331.82
2019-02-15T04:21:12.692Z,103328.84
2019-02-15T04:23:41.726Z,103322.95
2019-02-15T04:26:10.854Z,103329.62
2019-02-15T04:28:39.923Z,103319.41
2019-02-15T04:31:08.908Z,103318.79
2019-02-15T04:33:37.990Z,103319.10
2019-02-15T04:36:06.918Z,103319.89
2019-02-15T04:38:35.973Z,103324.52
2019-02-15T04:41:05.033Z,103321.45
2019-02-15T04:43:34.085Z,103328.05
2019-02-15T04:46:03.109Z,103320.20
2019-02-15T04:48:32.088Z,103316.27
2019-02-15T04:51:01.102Z,103316.59
2019-02-15T04:53:30.171Z,103311.48
2019-02-15T04:55:59.225Z,103313.91
2019-02-15T04:58:28.544Z,103309.20
2019-02-15T05:00:57.607Z,103311.08
2019-02-15T05:03:27.036Z,103309.36
2019-02-15T05:05:56.053Z,103312.73
2019-02-15T05:08:25.058Z,103301.74
2019-02-15T05:10:54.085Z,103303.78
2019-02-15T05:13:23.120Z,103307.55
2019-02-15T05:15:52.181Z,103306.77
2019-02-15T05:18:21.132Z,103303.31
2019-02-15T05:20:50.241Z,103308.25
2019-02-15T05:23:19.191Z,103301.03
2019-02-15T05:25:48.201Z,103301.03
2019-02-15T05:28:17.174Z,103305.66
2019-02-15T05:30:46.556Z,103307.31
2019-02-15T05:33:15.536Z,103310.13
2019-02-15T05:35:44.531Z,103310.83
2019-02-15T05:38:13.560Z,103313.58
2019-02-15T05:40:42.636Z,103317.66
2019-02-15T05:43:12.024Z,103317.10
2019-02-15T05:45:40.980Z,103313.25
2019-02-15T05:48:10.046Z,103310.55
2019-02-15T05:50:39.401Z,103307.09
2019-02-15T05:53:08.730Z,103304.97
2019-02-15T05:55:37.799Z,103309.13
2019-02-15T05:58:06.820Z,103311.64
2019-02-15T06:00:37.302Z,103305.98
2019-02-15T06:03:06.513Z,103298.98
2019-02-15T06:05:35.456Z,103300.47
2019-02-15T06:08:04.773Z,103306.27
2019-02-15T06:10:33.842Z,103305.02
2019-02-15T06:13:03.141Z,103304.63
2019-02-15T06:15:32.139Z,103315.06
2019-02-15T06:18:01.206Z,103315.45
2019-02-15T06:20:30.240Z,103314.58
2019-02-15T06:22:59.287Z,103313.33
2019-02-15T06:25:28.384Z,103312.24
2019-02-15T06:27:57.378Z,103310.37
2019-02-15T06:30:26.397Z,103313.82
2019-02-15T06:32:55.488Z,103319.80
2019-02-15T06:35:24.891Z,103314.45
2019-02-15T06:37:53.945Z,103315.33
2019-02-15T06:40:23.022Z,103316.58
2019-02-15T06:42:52.365Z,103321.29
2019-02-15T06:45:24.982Z,103320.12
2019-02-15T06:47:52.159Z,103322.44
2019-02-15T06:50:21.224Z,103320.87
2019-02-15T06:52:50.243Z,103323.15
2019-02-15T06:55:19.570Z,103325.04
2019-02-15T06:57:48.562Z,103323.63
2019-02-15T07:00:48.643Z,103325.52
2019-02-15T07:03:43.066Z,103323.25
2019-02-15T07:06:12.085Z,103325.53
2019-02-15T07:08:41.266Z,103331.34
2019-02-15T07:11:10.270Z,103327.11
2019-02-15T07:13:39.437Z,103337.09
2019-02-15T07:16:08.486Z,103338.73
2019-02-15T07:18:37.523Z,103342.50
2019-02-15T07:21:06.577Z,103346.51
2019-02-15T07:23:35.600Z,103344.10
2019-02-15T07:26:04.652Z,103348.95
2019-02-15T07:28:33.689Z,103356.72
2019-02-15T07:31:02.697Z,103355.66
2019-02-15T07:33:31.771Z,103347.75
2019-02-15T07:36:00.781Z,103337.59
2019-02-15T07:38:29.821Z,103350.61
2019-02-15T07:40:59.156Z,103348.89
2019-02-15T07:43:28.166Z,103352.42
2019-02-15T07:45:57.512Z,103355.47
2019-02-15T07:48:26.422Z,103357.06
2019-02-15T07:50:55.809Z,103352.09
2019-02-15T07:53:24.906Z,103361.25
2019-02-15T07:55:53.951Z,103360.91
2019-02-15T07:58:22.960Z,103358.73
2019-02-15T08:00:52.031Z,103358.59
2019-02-15T08:03:21.076Z,103358.59
2019-02-15T08:05:50.137Z,103352.89
2019-02-15T08:08:19.125Z,103351.96
2019-02-15T08:10:48.177Z,103350.64
2019-02-15T08:13:17.242Z,103350.36
2019-02-15T08:15:52.054Z,103351.59
2019-02-15T08:18:17.024Z,103337.00
2019-02-15T08:20:46.074Z,103345.75
2019-02-15T08:23:15.150Z,103343.32
2019-02-15T08:25:44.176Z,103346.34
2019-02-15T08:28:13.196Z,103344.05
2019-02-15T08:30:42.165Z,103348.39
2019-02-15T08:33:11.277Z,103348.55
2019-02-15T08:35:40.294Z,103344.38
2019-02-15T08:38:09.238Z,103355.05
2019-02-15T08:40:38.570Z,103342.36
2019-02-15T08:43:07.651Z,103348.32
2019-02-15T08:45:36.697Z,103351.47
2019-02-15T08:48:05.645Z,103345.48
2019-02-15T08:50:34.697Z,103345.50
2019-02-15T08:53:03.823Z,103357.66
2019-02-15T08:55:32.795Z,103355.56
2019-02-15T08:58:01.811Z,103358.97
2019-02-15T09:00:30.761Z,103357.31
2019-02-15T09:02:59.816Z,103353.46
2019-02-15T09:05:28.826Z,103357.23
2019-02-15T09:07:57.761Z,103357.92
2019-02-15T09:10:26.801Z,103362.02
2019-02-15T09:12:55.779Z,103360.59
2019-02-15T09:15:24.896Z,103358.99
2019-02-15T09:17:53.829Z,103352.13
2019-02-15T09:20:23.266Z,103355.53
2019-02-15T09:22:52.325Z,103351.63
2019-02-15T09:25:21.339Z,103354.84
2019-02-15T09:28:15.510Z,103352.08
2019-02-15T09:30:47.786Z,103355.05
2019-02-15T09:33:17.149Z,103353.59
2019-02-15T09:35:46.174Z,103354.25
2019-02-15T09:38:15.193Z,103336.86
2019-02-15T09:40:44.254Z,103338.83
2019-02-15T09:43:13.271Z,103344.33
2019-02-15T09:45:42.316Z,103348.37
2019-02-15T09:48:11.343Z,103344.47
2019-02-15T09:50:40.409Z,103342.67
2019-02-15T09:53:09.418Z,103346.82
2019-02-15T09:55:38.496Z,103339.97
2019-02-15T09:58:07.604Z,103343.92
2019-02-15T10:00:37.669Z,103351.03
2019-02-15T10:03:06.735Z,103348.11
2019-02-15T10:05:35.673Z,103343.30
2019-02-15T10:08:04.685Z,103340.20
2019-02-15T10:10:33.737Z,103333.91
2019-02-15T10:13:02.716Z,103341.09
2019-02-15T10:15:31.781Z,103343.81
2019-02-15T10:18:00.824Z,103344.86
2019-02-15T10:20:30.123Z,103343.35
2019-02-15T10:22:59.116Z,103344.33
2019-02-15T10:25:28.115Z,103340.62
2019-02-15T10:27:57.126Z,103339.46
2019-02-15T10:30:26.176Z,103340.62
2019-02-15T10:32:55.188Z,103323.20
2019-02-15T10:35:24.289Z,103332.27
2019-02-15T10:37:53.685Z,103320.09
2019-02-15T10:40:22.980Z,103322.83
2019-02-15T10:42:52.040Z,103322.94
2019-02-15T10:45:21.056Z,103326.92
2019-02-15T10:47:50.118Z,103326.67
2019-02-15T10:50:19.134Z,103327.23
2019-02-15T10:52:48.198Z,103323.09
2019-02-15T10:55:17.220Z,103327.83
2019-02-15T10:57:46.241Z,103327.52
2019-02-15T11:00:19.646Z,103321.66
2019-02-15T11:02:49.472Z,103326.05
2019-02-15T11:05:18.634Z,103327.02
2019-02-15T11:07:47.662Z,103330.48
2019-02-15T11:10:16.734Z,103326.73
2019-02-15T11:12:45.755Z,103317.44
2019-02-15T11:15:14.911Z,103313.26
2019-02-15T11:17:43.943Z,103319.72
2019-02-15T11:20:13.633Z,103315.53
2019-02-15T11:22:42.707Z,103301.64
2019-02-15T11:25:11.878Z,103300.44
2019-02-15T11:27:40.887Z,103303.48
2019-02-15T11:30:12.166Z,103300.48
2019-02-15T11:32:41.195Z,103300.95
2019-02-15T11:35:11.439Z,103295.02
2019-02-15T11:37:40.902Z,103288.63
2019-02-15T11:40:11.575Z,103286.14
2019-02-15T11:42:40.595Z,103287.11
2019-02-15T11:45:10.742Z,103291.40
2019-02-15T11:47:39.756Z,103280.37
2019-02-15T11:50:10.310Z,103283.87
2019-02-15T11:52:39.555Z,103283.53
2019-02-15T11:55:09.009Z,103286.12
2019-02-15T11:57:38.066Z,103280.22
2019-02-15T12:00:14.220Z,103276.44
2019-02-15T12:02:40.009Z,103277.33
2019-02-15T12:05:09.403Z,103271.39
2019-02-15T12:07:38.883Z,103260.30
2019-02-15T12:10:08.197Z,103265.48
2019-02-15T12:12:37.254Z,103269.77
2019-02-15T12:15:06.798Z,103259.56
2019-02-15T12:17:35.858Z,103264.70
2019-02-15T12:20:05.234Z,103262.12
2019-02-15T12:22:34.220Z,103275.35
2019-02-15T12:25:03.290Z,103256.59
2019-02-15T12:27:32.306Z,103253.62
2019-02-15T12:30:01.261Z,103254.89
2019-02-15T12:32:30.329Z,103236.98
2019-02-15T12:34:59.757Z,103259.18
2019-02-15T12:37:28.812Z,103248.95
2019-02-15T12:39:57.828Z,103241.73
2019-02-15T12:42:26.888Z,103246.00
2019-02-15T12:44:55.867Z,103262.22
2019-02-15T12:47:24.932Z,103277.59
2019-02-15T12:49:55.722Z,103263.52
2019-02-15T12:52:24.819Z,103254.55
2019-02-15T12:54:53.929Z,103278.02
2019-02-15T12:57:22.996Z,103282.30
2019-02-15T12:59:52.282Z,103240.06
2019-02-15T13:02:21.354Z,103241.77
2019-02-15T13:04:50.405Z,103256.29
2019-02-15T13:07:19.461Z,103228.95
2019-02-15T13:09:48.529Z,103240.48
2019-02-15T13:12:17.549Z,103219.98
2019-02-15T13:14:46.606Z,103219.97
2019-02-15T13:17:24.215Z,103217.40
2019-02-15T13:19:46.438Z,103225.09
2019-02-15T13:22:15.458Z,103219.11
2019-02-15T13:24:44.541Z,103213.13
2019-02-15T13:27:13.573Z,103209.27
2019-02-15T13:29:42.842Z,103206.28
2019-02-15T13:32:11.973Z,103222.11
2019-02-15T13:34:41.041Z,103199.03
2019-02-15T13:37:09.966Z,103197.75
2019-02-15T13:39:39.025Z,103205.44
2019-02-15T13:42:08.043Z,103192.63
2019-02-15T13:44:37.127Z,103193.05
2019-02-15T13:47:06.234Z,103183.63
2019-02-15T13:49:35.294Z,103175.50
2019-02-15T13:52:04.403Z,103166.96
2019-02-15T13:54:33.393Z,103171.27
2019-02-15T13:57:02.459Z,103175.55
2019-02-15T13:59:31.719Z,103159.31
2019-02-15T14:02:00.735Z,103164.44
2019-02-15T14:04:29.800Z,103151.63
2019-02-15T14:06:58.819Z,103159.75
2019-02-15T14:09:27.841Z,103146.50
2019-02-15T14:11:56.903Z,103140.09
2019-02-15T14:14:25.938Z,103134.11
2019-02-15T14:16:54.969Z,103125.14
2019-02-15T14:19:24.045Z,103126.44
2019-02-15T14:21:53.062Z,103138.84
2019-02-15T14:24:22.345Z,103131.16
2019-02-15T14:26:51.672Z,103120.91
2019-02-15T14:29:20.745Z,103119.62
2019-02-15T14:31:49.973Z,103108.09
2019-02-15T14:34:19.022Z,103102.97
2019-02-15T14:36:48.065Z,103108.53
2019-02-15T14:39:17.213Z,103096.97
2019-02-15T14:41:46.234Z,103088.88
2019-02-15T14:44:15.569Z,103088.44
2019-02-15T14:46:44.643Z,103086.73
2019-02-15T14:49:13.669Z,103089.31
2019-02-15T14:51:42.671Z,103091.88
2019-02-15T14:54:11.637Z,103084.20
2019-02-15T14:56:40.658Z,103079.05
2019-02-15T14:59:09.725Z,103081.62
2019-02-15T15:01:38.655Z,103077.36
2019-02-15T15:04:07.677Z,103068.83
2019-02-15T15:06:36.710Z,103067.98
2019-02-15T15:09:07.225Z,103065.00
2019-02-15T15:11:36.311Z,103071.41
2019-02-15T15:14:05.339Z,103061.59
2019-02-15T15:16:34.342Z,103049.65
2019-02-15T15:19:03.402Z,103045.35
2019-02-15T15:21:32.509Z,103041.09
2019-02-15T15:24:01.526Z,103043.64
2019-02-15T15:26:30.529Z,103035.11
2019-02-15T15:28:59.589Z,103029.55
2019-02-15T15:31:28.606Z,103028.70
2019-02-15T15:33:57.632Z,103022.29
2019-02-15T15:36:26.700Z,103015.03
2019-02-15T15:38:55.731Z,103011.18
2019-02-15T15:41:24.813Z,103008.14
2019-02-15T15:43:53.843Z,103002.58
2019-02-15T15:46:22.851Z,102995.28
2019-02-15T15:48:51.915Z,102990.14
2019-02-15T15:51:20.926Z,102987.97
2019-02-15T15:53:49.915Z,102979.41
2019-02-15T15:56:19.019Z,102969.58
2019-02-15T15:58:48.045Z,102973.80
2019-02-15T16:01:17.090Z,102967.75
2019-02-15T16:03:46.157Z,102964.72
2019-02-15T16:06:24.057Z,102961.68
2019-02-15T16:08:46.476Z,102956.52
2019-02-15T16:11:15.479Z,102954.30
2019-02-15T16:13:44.883Z,102942.75
2019-02-15T16:16:13.938Z,102940.11
2019-02-15T16:18:42.951Z,102934.03
2019-02-15T16:21:11.925Z,102931.32
2019-02-15T16:23:40.828Z,102925.25
2019-02-15T16:26:09.885Z,102918.33
2019-02-15T16:28:39.375Z,102922.91
2019-02-15T16:31:08.714Z,102914.23
2019-02-15T16:33:37.698Z,102917.08
2019-02-15T16:36:06.757Z,102917.38
2019-02-15T16:38:35.764Z,102917.64
2019-02-15T16:41:04.805Z,102906.47
2019-02-15T16:43:34.205Z,102916.10
2019-02-15T16:46:03.308Z,102917.65
2019-02-15T16:48:41.686Z,102915.34
2019-02-15T16:51:03.100Z,102914.78
2019-02-15T16:53:32.144Z,102913.80
2019-02-15T16:56:01.162Z,102912.36
2019-02-15T16:58:30.204Z,102916.06
2019-02-15T17:00:59.288Z,102910.03
2019-02-15T17:03:28.579Z,102905.20
2019-02-15T17:05:57.672Z,102907.66
2019-02-15T17:08:28.627Z,102909.18
2019-02-15T17:10:57.643Z,102899.80
2019-02-15T17:13:26.662Z,102900.13
2019-02-15T17:15:56.046Z,102905.14
2019-02-15T17:18:25.472Z,102901.69
2019-02-15T17:20:54.565Z,102895.70
2019-02-15T17:23:23.569Z,102891.84
2019-02-15T17:25:52.898Z,102887.15
2019-02-15T17:28:21.962Z,102881.16
2019-02-15T17:30:51.005Z,102890.91
2019-02-15T17:33:19.951Z,102885.80
2019-02-15T17:35:49.002Z,102878.20
2019-02-15T17:38:18.017Z,102885.86
2019-02-15T17:40:47.551Z,102888.34
2019-02-15T17:43:16.491Z,102882.80
2019-02-15T17:45:45.549Z,102886.11
2019-02-15T17:48:14.862Z,102873.80
2019-02-15T17:50:43.926Z,102870.80
2019-02-15T17:53:12.987Z,102875.81
2019-02-15T17:55:42.382Z,102870.69
2019-02-15T17:58:11.389Z,102869.75
2019-02-15T18:00:40.452Z,102874.80
2019-02-15T18:03:09.468Z,102871.79
2019-02-15T18:05:38.484Z,102870.84
2019-02-15T18:08:07.526Z,102863.95
2019-02-15T18:10:36.538Z,102855.80
2019-02-15T18:13:05.588Z,102861.65
2019-02-15T18:15:34.755Z,102853.95
2019-02-15T18:18:03.807Z,102855.45
2019-02-15T18:20:32.876Z,102849.31
2019-02-15T18:23:01.926Z,102842.77
2019-02-15T18:25:31.050Z,102849.74
2019-02-15T18:28:00.072Z,102844.00
2019-02-15T18:30:29.133Z,102843.84
2019-02-15T18:32:58.227Z,102841.14
2019-02-15T18:35:27.164Z,102840.16
2019-02-15T18:37:56.180Z,102842.56
2019-02-15T18:40:25.237Z,102842.39
2019-02-15T18:42:54.318Z,102837.15
2019-02-15T18:45:23.333Z,102839.09
2019-02-15T18:47:52.345Z,102838.55
2019-02-15T18:50:21.400Z,102831.59
2019-02-15T18:52:50.410Z,102836.06
2019-02-15T18:55:19.452Z,102836.73
2019-02-15T18:57:49.299Z,102833.20
2019-02-15T19:00:18.428Z,102824.57
2019-02-15T19:02:47.519Z,102821.04
2019-02-15T19:05:16.582Z,102817.98
2019-02-15T19:07:45.589Z,102820.48
2019-02-15T19:10:16.358Z,102815.83
2019-02-15T19:12:45.414Z,102810.28
2019-02-15T19:15:15.389Z,102811.50
2019-02-15T19:17:44.415Z,102814.33
2019-02-15T19:20:14.021Z,102823.41
2019-02-15T19:22:43.465Z,102817.66
2019-02-15T19:25:13.250Z,102820.84
2019-02-15T19:27:42.271Z,102813.51
2019-02-15T19:30:13.894Z,102818.00
2019-02-15T19:32:43.066Z,102811.02
2019-02-15T19:35:12.171Z,102804.05
2019-02-15T19:37:41.231Z,102807.23
2019-02-15T19:40:11.471Z,102804.48
2019-02-15T19:42:41.766Z,102800.03
2019-02-15T19:45:11.925Z,102800.72
2019-02-15T19:47:40.961Z,102788.69
2019-02-15T19:50:11.974Z,102791.44
2019-02-15T19:52:41.529Z,102790.41
2019-02-15T19:55:10.892Z,102786.13
2019-02-15T19:57:39.946Z,102784.32
2019-02-15T20:00:12.546Z,102780.89
2019-02-15T20:02:41.556Z,102786.67
2019-02-15T20:05:10.567Z,102781.08
2019-02-15T20:07:39.661Z,102784.20
2019-02-15T20:10:11.418Z,102791.19
2019-02-15T20:12:40.453Z,102787.71
2019-02-15T20:15:12.457Z,102789.33
2019-02-15T20:17:41.899Z,102786.27
2019-02-15T20:20:12.125Z,102786.63
2019-02-15T20:22:41.160Z,102786.63
2019-02-15T20:25:10.720Z,102782.02
2019-02-15T20:27:39.737Z,102784.09
2019-02-15T20:30:14.556Z,102772.28
2019-02-15T20:32:43.588Z,102766.42
2019-02-15T20:35:13.620Z,102763.90
2019-02-15T20:37:42.830Z,102765.66
2019-02-15T20:40:11.927Z,102766.92
2019-02-15T20:42:40.973Z,102761.83
2019-02-15T20:45:13.038Z,102752.98
2019-02-15T20:47:42.106Z,102753.80
2019-02-15T20:50:11.175Z,102749.11
2019-02-15T20:52:40.220Z,102744.83
2019-02-15T20:55:10.607Z,102755.14
2019-02-15T20:57:39.675Z,102747.48
2019-02-15T21:00:14.574Z,102736.34
2019-02-15T21:02:43.617Z,102741.66
2019-02-15T21:05:12.656Z,102736.91
2019-02-15T21:07:41.702Z,102735.56
2019-02-15T21:10:11.206Z,102738.44
2019-02-15T21:12:40.260Z,102726.58
2019-02-15T21:15:09.898Z,102725.82
2019-02-15T21:17:38.948Z,102728.34
2019-02-15T21:20:09.482Z,102733.03
2019-02-15T21:22:38.491Z,102716.68
2019-02-15T21:25:08.878Z,102726.37
2019-02-15T21:27:37.948Z,102715.78
2019-02-15T21:30:08.863Z,102715.83
2019-02-15T21:32:37.873Z,102717.44
2019-02-15T21:35:06.952Z,102708.20
2019-02-15T21:37:35.965Z,102703.97
2019-02-15T21:40:05.561Z,102701.04
2019-02-15T21:42:34.553Z,102694.78
2019-02-15T21:45:03.561Z,102698.61
2019-02-15T21:47:32.586Z,102691.54
2019-02-15T21:50:01.838Z,102682.75
2019-02-15T21:52:30.798Z,102691.13
2019-02-15T21:54:59.849Z,102683.52
2019-02-15T21:57:29.181Z,102682.20
2019-02-15T21:59:58.224Z,102674.95
2019-02-15T22:02:27.273Z,102685.36
2019-02-15T22:04:56.391Z,102679.86
2019-02-15T22:07:25.805Z,102679.77
2019-02-15T22:09:54.881Z,102681.74
2019-02-15T22:12:24.508Z,102674.84
2019-02-15T22:14:53.521Z,102669.27
2019-02-15T22:17:22.475Z,102669.53
2019-02-15T22:19:51.447Z,102672.36
2019-02-15T22:22:20.500Z,102666.36
2019-02-15T22:24:49.557Z,102663.30
2019-02-15T22:27:18.542Z,102658.96
2019-02-15T22:29:47.558Z,102661.39
2019-02-15T22:32:16.521Z,102664.63
2019-02-15T22:34:45.543Z,102659.94
2019-02-15T22:37:14.476Z,102663.36
2019-02-15T22:39:43.578Z,102658.31
2019-02-15T22:42:12.626Z,102656.16
2019-02-15T22:44:41.756Z,102654.08
2019-02-15T22:47:10.829Z,102644.90
2019-02-15T22:49:43.373Z,102645.26
2019-02-15T22:52:10.599Z,102639.66
2019-02-15T22:54:39.658Z,102643.75
2019-02-15T22:57:09.043Z,102639.02
2019-02-15T22:59:38.047Z,102634.38
2019-02-15T23:02:07.107Z,102628.58
2019-02-15T23:04:36.137Z,102632.36
2019-02-15T23:07:05.181Z,102632.27
2019-02-15T23:09:34.311Z,102624.95
2019-02-15T23:12:03.369Z,102624.05
2019-02-15T23:14:32.467Z,102626.13
2019-02-15T23:17:01.813Z,102621.12
2019-02-15T23:19:30.875Z,102613.52
2019-02-15T23:21:59.899Z,102614.63
2019-02-15T23:24:28.912Z,102617.77
2019-02-15T23:26:57.963Z,102614.73
2019-02-15T23:29:27.015Z,102613.83
2019-02-15T23:31:56.026Z,102609.55
2019-02-15T23:34:25.076Z,102604.01
2019-02-15T23:36:54.143Z,102605.27
2019-02-15T23:39:23.416Z,102602.62
2019-02-15T23:41:52.459Z,102603.20
2019-02-15T23:44:21.461Z,102602.95
2019-02-15T23:46:50.507Z,102598.91
2019-02-15T23:49:19.523Z,102600.41
2019-02-15T23:51:48.587Z,102598.99
2019-02-15T23:54:18.244Z,102597.02
2019-02-15T23:56:47.284Z,102594.59
2019-02-15T23:59:16.223Z,102593.02
